sensor_id;sensor_type;location;lat;lon;timestamp;P1;durP1;ratioP1;P2;durP2;ratioP2
85759;SDS011;76206;39.770;2.710;2024-02-14T07:13:58;8.50;;;5.60;;
85759;SDS011;76206;39.770;2.710;2024-02-14T07:18:49;13.30;;;7.60;;
85759;SDS011;76206;39.770;2.710;2024-02-14T07:21:15;12.50;;;6.50;;
85759;SDS011;76206;39.770;2.710;2024-02-14T07:23:41;14.50;;;6.90;;
85759;SDS011;76206;39.770;2.710;2024-02-14T07:26:07;15.10;;;7.10;;
85759;SDS011;76206;39.770;2.710;2024-02-14T07:28:32;10.20;;;6.00;;
85759;SDS011;76206;39.770;2.710;2024-02-14T07:30:58;11.80;;;6.00;;
85759;SDS011;76206;39.770;2.710;2024-02-14T07:33:24;9.70;;;5.10;;
85759;SDS011;76206;39.770;2.710;2024-02-14T07:35:49;13.00;;;6.40;;
85759;SDS011;76206;39.770;2.710;2024-02-14T07:38:15;13.40;;;5.80;;
85759;SDS011;76206;39.770;2.710;2024-02-14T07:40:41;11.40;;;5.60;;
85759;SDS011;76206;39.770;2.710;2024-02-14T07:43:07;9.70;;;5.50;;
85759;SDS011;76206;39.770;2.710;2024-02-14T07:45:33;8.40;;;4.70;;
85759;SDS011;76206;39.770;2.710;2024-02-14T07:47:58;10.50;;;4.50;;
85759;SDS011;76206;39.770;2.710;2024-02-14T07:50:24;13.00;;;5.10;;
85759;SDS011;76206;39.770;2.710;2024-02-14T07:52:49;6.60;;;4.40;;
85759;SDS011;76206;39.770;2.710;2024-02-14T07:55:15;8.70;;;4.50;;
85759;SDS011;76206;39.770;2.710;2024-02-14T07:57:40;8.50;;;4.00;;
85759;SDS011;76206;39.770;2.710;2024-02-14T08:00:07;8.10;;;3.60;;
85759;SDS011;76206;39.770;2.710;2024-02-14T08:02:34;9.40;;;3.70;;
85759;SDS011;76206;39.770;2.710;2024-02-14T08:05:00;9.40;;;4.40;;
85759;SDS011;76206;39.770;2.710;2024-02-14T08:07:26;12.60;;;5.50;;
85759;SDS011;76206;39.770;2.710;2024-02-14T08:09:52;13.90;;;5.90;;
85759;SDS011;76206;39.770;2.710;2024-02-14T08:12:18;6.80;;;4.00;;
85759;SDS011;76206;39.770;2.710;2024-02-14T08:14:44;9.30;;;5.20;;
85759;SDS011;76206;39.770;2.710;2024-02-14T08:17:09;9.30;;;4.20;;
85759;SDS011;76206;39.770;2.710;2024-02-14T08:19:35;11.00;;;5.30;;
85759;SDS011;76206;39.770;2.710;2024-02-14T08:22:00;7.50;;;4.40;;
85759;SDS011;76206;39.770;2.710;2024-02-14T08:24:26;8.30;;;4.70;;
85759;SDS011;76206;39.770;2.710;2024-02-14T08:26:52;8.40;;;5.70;;
85759;SDS011;76206;39.770;2.710;2024-02-14T08:29:18;9.30;;;4.90;;
85759;SDS011;76206;39.770;2.710;2024-02-14T08:31:44;12.60;;;4.50;;
85759;SDS011;76206;39.770;2.710;2024-02-14T08:36:35;14.40;;;5.10;;
85759;SDS011;76206;39.770;2.710;2024-02-14T08:39:09;5.20;;;3.50;;
85759;SDS011;76206;39.770;2.710;2024-02-14T08:41:38;10.40;;;5.60;;
85759;SDS011;76206;39.770;2.710;2024-02-14T08:44:08;12.30;;;5.90;;
85759;SDS011;76206;39.770;2.710;2024-02-14T08:49:00;8.50;;;4.70;;
85759;SDS011;76206;39.770;2.710;2024-02-14T08:51:33;8.90;;;4.70;;
85759;SDS011;76206;39.770;2.710;2024-02-14T08:54:02;9.80;;;5.00;;
85759;SDS011;76206;39.770;2.710;2024-02-14T08:56:33;15.80;;;7.30;;
85759;SDS011;76206;39.770;2.710;2024-02-14T08:59:02;10.80;;;6.90;;
85759;SDS011;76206;39.770;2.710;2024-02-14T09:01:28;28.80;;;14.70;;
85759;SDS011;76206;39.770;2.710;2024-02-14T09:03:54;25.00;;;14.10;;
85759;SDS011;76206;39.770;2.710;2024-02-14T09:06:20;19.60;;;11.80;;
85759;SDS011;76206;39.770;2.710;2024-02-14T09:08:46;21.80;;;10.70;;
85759;SDS011;76206;39.770;2.710;2024-02-14T09:11:12;24.50;;;14.00;;
85759;SDS011;76206;39.770;2.710;2024-02-14T09:13:38;28.20;;;14.20;;
85759;SDS011;76206;39.770;2.710;2024-02-14T09:16:06;23.40;;;16.10;;
85759;SDS011;76206;39.770;2.710;2024-02-14T09:18:33;22.60;;;13.10;;
85759;SDS011;76206;39.770;2.710;2024-02-14T09:20:58;26.20;;;15.50;;
85759;SDS011;76206;39.770;2.710;2024-02-14T09:23:24;22.90;;;14.70;;
85759;SDS011;76206;39.770;2.710;2024-02-14T09:25:49;24.90;;;15.70;;
85759;SDS011;76206;39.770;2.710;2024-02-14T09:28:16;26.90;;;15.30;;
85759;SDS011;76206;39.770;2.710;2024-02-14T09:30:42;22.20;;;13.50;;
85759;SDS011;76206;39.770;2.710;2024-02-14T09:33:07;21.90;;;14.40;;
85759;SDS011;76206;39.770;2.710;2024-02-14T09:35:33;19.50;;;12.60;;
85759;SDS011;76206;39.770;2.710;2024-02-14T09:38:00;22.20;;;15.00;;
85759;SDS011;76206;39.770;2.710;2024-02-14T09:40:26;23.30;;;16.50;;
85759;SDS011;76206;39.770;2.710;2024-02-14T09:42:55;24.20;;;17.00;;
